createdAt,value
2022-09-23T00:01:25.379Z,101694.97
2022-09-23T00:03:52.495Z,101697.91
2022-09-23T00:06:24.088Z,101696.03
2022-09-23T00:08:54.320Z,101702.31
2022-09-23T00:11:25.957Z,101694.09
2022-09-23T00:13:57.582Z,101695.69
2022-09-23T00:16:32.685Z,101700.06
2022-09-23T00:19:04.337Z,101698.41
2022-09-23T00:21:31.505Z,101699.91
2022-09-23T00:23:58.777Z,101692.91
2022-09-23T00:26:25.891Z,101682.41
2022-09-23T00:28:53.192Z,101688.22
2022-09-23T00:31:27.372Z,101691.09
2022-09-23T00:34:01.769Z,101687.31
2022-09-23T00:36:33.413Z,101677.41
2022-09-23T00:39:00.654Z,101682.56
2022-09-23T00:41:28.080Z,101682.47
2022-09-23T00:44:23.426Z,101687.72
2022-09-23T00:46:50.732Z,101683.50
2022-09-23T00:49:30.357Z,101686.44
2022-09-23T00:52:09.211Z,101683.50
2022-09-23T00:54:36.261Z,101680.16
2022-09-23T00:57:05.760Z,101678.00
2022-09-23T00:59:33.055Z,101675.28
2022-09-23T01:02:02.353Z,101679.81
2022-09-23T01:04:30.605Z,101680.16
2022-09-23T01:06:57.577Z,101687.56
2022-09-23T01:09:27.522Z,101675.16
2022-09-23T01:12:39.804Z,101686.06
2022-09-23T01:15:24.216Z,101678.69
2022-09-23T01:18:08.867Z,101671.16
2022-09-23T01:21:08.322Z,101677.75
2022-09-23T01:24:08.322Z,101680.22
2022-09-23T01:27:01.024Z,101675.16
2022-09-23T01:29:56.081Z,101676.75
2022-09-23T01:32:49.456Z,101682.38
2022-09-23T01:36:13.006Z,101683.22
2022-09-23T01:39:11.920Z,101676.22
2022-09-23T01:41:59.783Z,101670.66
2022-09-23T01:44:56.587Z,101670.56
2022-09-23T01:47:44.281Z,101668.69
2022-09-23T01:50:44.837Z,101672.09
2022-09-23T01:53:20.998Z,101679.19
2022-09-23T01:56:00.349Z,101674.44
2022-09-23T01:58:53.945Z,101664.75
2022-09-23T02:01:54.082Z,101667.03
2022-09-23T02:04:36.754Z,101669.78
2022-09-23T02:07:22.050Z,101672.56
2022-09-23T02:09:59.385Z,101662.41
2022-09-23T02:12:30.399Z,101667.16
2022-09-23T02:15:08.687Z,101670.25
2022-09-23T02:17:55.714Z,101661.00
2022-09-23T02:20:29.741Z,101664.28
2022-09-23T02:23:36.155Z,101659.63
2022-09-23T02:26:34.585Z,101658.31
2022-09-23T02:29:08.142Z,101653.19
2022-09-23T02:31:45.650Z,101655.53
2022-09-23T02:34:53.133Z,101657.06
2022-09-23T02:37:44.046Z,101659.38
2022-09-23T02:40:52.493Z,101648.75
2022-09-23T02:43:36.251Z,101655.06
2022-09-23T02:46:04.981Z,101651.06
2022-09-23T02:49:00.802Z,101648.78
2022-09-23T02:51:38.253Z,101646.44
2022-09-23T02:54:10.683Z,101641.47
2022-09-23T02:56:38.005Z,101645.16
2022-09-23T02:59:09.563Z,101637.16
2022-09-23T03:02:02.177Z,101644.16
2022-09-23T03:04:52.078Z,101639.03
2022-09-23T03:07:57.498Z,101635.22
2022-09-23T03:11:04.422Z,101635.88
2022-09-23T03:13:42.638Z,101634.09
2022-09-23T03:16:48.027Z,101631.59
2022-09-23T03:20:04.561Z,101632.06
2022-09-23T03:22:46.981Z,101632.41
2022-09-23T03:25:18.154Z,101631.91
2022-09-23T03:27:45.796Z,101629.94
2022-09-23T03:30:13.821Z,101623.16
2022-09-23T03:32:47.985Z,101625.63
2022-09-23T03:35:15.004Z,101624.31
2022-09-23T03:38:01.050Z,101620.00
2022-09-23T03:40:33.655Z,101614.88
2022-09-23T03:43:04.535Z,101617.69
2022-09-23T03:45:36.653Z,101617.53
2022-09-23T03:48:04.486Z,101617.13
2022-09-23T03:50:31.590Z,101620.16
2022-09-23T03:52:59.445Z,101617.34
2022-09-23T03:55:26.470Z,101624.97
2022-09-23T03:57:53.718Z,101614.38
2022-09-23T04:00:20.779Z,101614.72
2022-09-23T04:02:48.428Z,101613.03
2022-09-23T04:05:15.568Z,101607.56
2022-09-23T04:07:42.665Z,101614.31
2022-09-23T04:10:10.989Z,101616.31
2022-09-23T04:12:44.063Z,101611.16
2022-09-23T04:15:11.322Z,101605.69
2022-09-23T04:17:38.540Z,101616.94
2022-09-23T04:20:06.437Z,101613.53
2022-09-23T04:22:35.167Z,101618.91
2022-09-23T04:25:02.479Z,101617.31
2022-09-23T04:27:31.292Z,101611.63
2022-09-23T04:30:01.422Z,101615.72
2022-09-23T04:32:28.438Z,101611.94
2022-09-23T04:34:55.398Z,101615.56
2022-09-23T04:37:22.477Z,101617.75
2022-09-23T04:39:49.443Z,101616.91
2022-09-23T04:42:16.451Z,101615.78
2022-09-23T04:44:43.418Z,101615.31
2022-09-23T04:47:10.423Z,101621.53
2022-09-23T04:49:38.421Z,101621.22
2022-09-23T04:52:05.798Z,101625.19
2022-09-23T04:54:33.024Z,101617.66
2022-09-23T04:57:00.100Z,101623.13
2022-09-23T04:59:27.113Z,101621.53
2022-09-23T05:01:55.513Z,101624.91
2022-09-23T05:04:22.929Z,101623.97
2022-09-23T05:06:49.960Z,101625.97
2022-09-23T05:09:18.221Z,101616.63
2022-09-23T05:11:46.035Z,101627.63
2022-09-23T05:14:13.500Z,101629.63
2022-09-23T05:16:40.928Z,101622.81
2022-09-23T05:19:08.356Z,101618.34
2022-09-23T05:21:36.694Z,101618.00
2022-09-23T05:24:03.927Z,101619.66
2022-09-23T05:26:32.622Z,101618.66
2022-09-23T05:29:00.423Z,101619.63
2022-09-23T05:31:30.426Z,101620.81
2022-09-23T05:34:04.930Z,101616.03
2022-09-23T05:36:38.805Z,101618.50
2022-09-23T05:39:08.251Z,101621.94
2022-09-23T05:41:36.599Z,101615.59
2022-09-23T05:44:04.255Z,101627.53
2022-09-23T05:46:32.124Z,101624.78
2022-09-23T05:49:08.163Z,101630.50
2022-09-23T05:51:35.972Z,101628.94
2022-09-23T05:54:08.447Z,101626.34
2022-09-23T05:56:37.354Z,101633.94
2022-09-23T05:59:06.437Z,101629.03
2022-09-23T06:01:36.797Z,101641.41
2022-09-23T06:04:07.831Z,101634.91
2022-09-23T06:06:41.592Z,101630.72
2022-09-23T06:09:13.565Z,101631.41
2022-09-23T06:11:41.670Z,101631.66
2022-09-23T06:14:14.685Z,101631.13
2022-09-23T06:16:41.788Z,101632.69
2022-09-23T06:19:10.162Z,101628.16
2022-09-23T06:21:39.599Z,101638.94
2022-09-23T06:24:08.166Z,101645.19
2022-09-23T06:26:37.990Z,101631.72
2022-09-23T06:29:12.260Z,101633.75
2022-09-23T06:31:41.249Z,101633.97
2022-09-23T06:34:13.459Z,101630.25
2022-09-23T06:36:45.338Z,101633.59
2022-09-23T06:39:15.137Z,101623.06
2022-09-23T06:41:43.371Z,101618.38
2022-09-23T06:44:10.519Z,101625.91
2022-09-23T06:46:37.688Z,101622.00
2022-09-23T06:49:04.714Z,101621.94
2022-09-23T06:51:32.136Z,101619.84
2022-09-23T06:53:59.128Z,101620.28
2022-09-23T06:56:26.263Z,101620.72
2022-09-23T06:58:53.501Z,101616.19
2022-09-23T07:01:20.737Z,101611.41
2022-09-23T07:03:48.648Z,101607.81
2022-09-23T07:06:17.265Z,101603.16
2022-09-23T07:08:47.255Z,101607.81
2022-09-23T07:11:15.976Z,101607.19
2022-09-23T07:13:43.663Z,101607.66
2022-09-23T07:16:11.784Z,101613.16
2022-09-23T07:18:39.777Z,101603.03
2022-09-23T07:21:17.040Z,101607.09
2022-09-23T07:23:46.982Z,101601.13
2022-09-23T07:26:23.215Z,101598.72
2022-09-23T07:29:04.870Z,101601.53
2022-09-23T07:31:39.946Z,101599.06
2022-09-23T07:34:11.528Z,101599.03
2022-09-23T07:36:40.838Z,101593.50
2022-09-23T07:39:12.130Z,101592.38
2022-09-23T07:41:39.847Z,101600.91
2022-09-23T07:44:07.033Z,101600.38
2022-09-23T07:46:36.513Z,101602.59
2022-09-23T07:49:05.467Z,101603.91
2022-09-23T07:51:39.334Z,101604.19
2022-09-23T07:54:12.159Z,101602.13
2022-09-23T07:56:41.826Z,101602.66
2022-09-23T07:59:18.203Z,101601.59
2022-09-23T08:01:52.725Z,101596.59
2022-09-23T08:04:23.388Z,101598.72
2022-09-23T08:07:00.835Z,101603.00
2022-09-23T08:09:43.605Z,101586.19
2022-09-23T08:12:23.113Z,101584.41
2022-09-23T08:14:50.106Z,101586.91
2022-09-23T08:17:17.072Z,101592.50
2022-09-23T08:19:44.089Z,101580.00
2022-09-23T08:22:12.403Z,101574.00
2022-09-23T08:24:39.561Z,101575.78
2022-09-23T08:27:06.558Z,101570.69
2022-09-23T08:29:33.891Z,101577.22
2022-09-23T08:32:01.425Z,101569.69
2022-09-23T08:34:28.817Z,101574.88
2022-09-23T08:36:55.856Z,101574.97
2022-09-23T08:39:23.599Z,101570.56
2022-09-23T08:41:59.114Z,101573.72
2022-09-23T08:44:57.272Z,101561.16
2022-09-23T08:47:45.842Z,101569.28
2022-09-23T08:50:27.146Z,101558.34
2022-09-23T08:53:02.787Z,101562.47
2022-09-23T08:55:46.776Z,101560.72
2022-09-23T08:58:26.805Z,101565.53
2022-09-23T09:01:16.471Z,101570.75
2022-09-23T09:03:48.087Z,101566.06
2022-09-23T09:06:52.240Z,101563.72
2022-09-23T09:09:56.807Z,101559.66
2022-09-23T09:12:47.234Z,101555.97
2022-09-23T09:15:24.955Z,101559.50
2022-09-23T09:18:13.986Z,101565.34
2022-09-23T09:21:42.477Z,101557.91
2022-09-23T09:24:21.847Z,101555.75
2022-09-23T09:26:48.893Z,101557.78
2022-09-23T09:29:35.485Z,101556.25
2022-09-23T09:32:34.031Z,101549.00
2022-09-23T09:35:21.417Z,101553.25
2022-09-23T09:37:48.544Z,101547.81
2022-09-23T09:40:20.790Z,101543.03
2022-09-23T09:42:50.327Z,101539.22
2022-09-23T09:46:08.377Z,101542.78
2022-09-23T09:48:53.722Z,101536.34
2022-09-23T09:51:24.275Z,101521.06
2022-09-23T09:53:56.111Z,101530.06
2022-09-23T09:56:34.545Z,101530.06
2022-09-23T09:59:16.837Z,101522.09
2022-09-23T10:01:43.896Z,101520.69
2022-09-23T10:04:35.029Z,101522.72
2022-09-23T10:07:14.403Z,101516.19
2022-09-23T10:09:50.211Z,101512.00
2022-09-23T10:12:21.468Z,101514.53
2022-09-23T10:14:58.868Z,101503.19
2022-09-23T10:17:34.110Z,101509.47
2022-09-23T10:20:08.255Z,101503.84
2022-09-23T10:22:42.552Z,101497.34
2022-09-23T10:25:19.270Z,101495.25
2022-09-23T10:27:46.933Z,101488.34
2022-09-23T10:30:25.792Z,101496.28
2022-09-23T10:32:58.214Z,101484.50
2022-09-23T10:35:26.672Z,101484.53
2022-09-23T10:37:55.387Z,101489.72
2022-09-23T10:41:02.762Z,101480.56
2022-09-23T10:44:45.826Z,101477.66
2022-09-23T10:48:01.403Z,101480.03
2022-09-23T10:50:48.654Z,101477.47
2022-09-23T10:53:29.052Z,101465.09
2022-09-23T10:56:28.832Z,101467.66
2022-09-23T10:59:27.995Z,101459.25
2022-09-23T11:02:36.006Z,101452.59
2022-09-23T11:05:26.522Z,101466.13
2022-09-23T11:10:46.512Z,101460.22
2022-09-23T11:13:30.044Z,101464.16
2022-09-23T11:18:59.676Z,101451.88
2022-09-23T11:21:51.890Z,101446.97
2022-09-23T11:24:50.177Z,101450.00
2022-09-23T11:27:59.516Z,101439.59
2022-09-23T11:31:04.368Z,101434.13
2022-09-23T11:34:01.731Z,101428.94
2022-09-23T11:36:42.075Z,101431.28
2022-09-23T11:39:23.294Z,101420.16
2022-09-23T11:42:04.812Z,101419.31
2022-09-23T11:44:45.280Z,101418.06
2022-09-23T11:47:54.388Z,101422.59
2022-09-23T11:50:30.314Z,101415.41
2022-09-23T11:53:23.795Z,101414.06
2022-09-23T11:56:05.611Z,101417.81
2022-09-23T11:58:49.446Z,101411.38
2022-09-23T12:01:37.000Z,101396.84
2022-09-23T12:04:53.287Z,101394.22
2022-09-23T12:07:39.367Z,101393.88
2022-09-23T12:10:09.351Z,101387.91
2022-09-23T12:13:05.013Z,101380.34
2022-09-23T12:16:31.578Z,101385.28
2022-09-23T12:19:37.180Z,101382.09
2022-09-23T12:22:29.069Z,101379.66
2022-09-23T12:25:43.276Z,101375.19
2022-09-23T12:28:23.473Z,101365.47
2022-09-23T12:30:54.650Z,101371.19
2022-09-23T12:33:30.372Z,101371.97
2022-09-23T12:36:07.969Z,101373.09
2022-09-23T12:38:49.507Z,101373.31
2022-09-23T12:41:37.682Z,101375.47
2022-09-23T12:44:42.259Z,101371.25
2022-09-23T12:47:15.310Z,101372.72
2022-09-23T12:49:43.739Z,101373.53
2022-09-23T12:52:16.707Z,101362.25
2022-09-23T12:54:49.915Z,101367.94
2022-09-23T12:57:35.132Z,101362.44
2022-09-23T13:00:13.961Z,101355.53
2022-09-23T13:03:21.658Z,101352.75
2022-09-23T13:06:12.119Z,101358.16
2022-09-23T13:08:42.256Z,101355.41
2022-09-23T13:11:31.879Z,101346.25
2022-09-23T13:14:04.799Z,101345.56
2022-09-23T13:16:46.738Z,101341.22
2022-09-23T13:19:25.832Z,101330.06
2022-09-23T13:22:11.476Z,101322.78
2022-09-23T13:24:54.164Z,101320.81
2022-09-23T13:27:24.494Z,101319.00
2022-09-23T13:29:59.601Z,101305.28
2022-09-23T13:32:35.632Z,101305.69
2022-09-23T13:35:06.992Z,101311.56
2022-09-23T13:37:48.898Z,101319.00
2022-09-23T13:40:27.781Z,101312.44
2022-09-23T13:43:01.782Z,101313.50
2022-09-23T13:45:33.957Z,101305.56
2022-09-23T13:48:10.623Z,101298.31
2022-09-23T13:50:48.652Z,101301.16
2022-09-23T13:53:28.424Z,101296.09
2022-09-23T13:56:17.912Z,101302.91
2022-09-23T13:58:45.099Z,101287.78
2022-09-23T14:01:34.832Z,101291.63
2022-09-23T14:04:02.772Z,101285.03
2022-09-23T14:06:40.980Z,101284.25
2022-09-23T14:09:08.168Z,101284.91
2022-09-23T14:11:35.636Z,101275.72
2022-09-23T14:14:07.903Z,101281.38
2022-09-23T14:16:40.876Z,101278.09
2022-09-23T14:19:19.823Z,101275.97
2022-09-23T14:21:55.759Z,101277.81
2022-09-23T14:24:30.900Z,101280.03
2022-09-23T14:27:06.650Z,101277.63
2022-09-23T14:29:38.301Z,101278.50
2022-09-23T14:32:18.823Z,101272.41
2022-09-23T14:35:00.965Z,101276.22
2022-09-23T14:37:57.657Z,101262.16
2022-09-23T14:40:50.835Z,101268.66
2022-09-23T14:43:28.240Z,101269.84
2022-09-23T14:45:58.564Z,101267.09
2022-09-23T14:48:31.500Z,101269.22
2022-09-23T14:51:14.473Z,101260.59
2022-09-23T14:53:48.800Z,101254.09
2022-09-23T14:56:18.383Z,101255.47
2022-09-23T14:58:55.199Z,101246.13
2022-09-23T15:01:31.449Z,101249.41
2022-09-23T15:04:21.559Z,101247.88
2022-09-23T15:06:58.806Z,101236.81
2022-09-23T15:09:45.785Z,101240.16
2022-09-23T15:12:21.230Z,101233.50
2022-09-23T15:14:56.897Z,101231.38
2022-09-23T15:17:23.860Z,101231.28
2022-09-23T15:19:58.447Z,101223.94
2022-09-23T15:22:26.615Z,101227.56
2022-09-23T15:25:10.842Z,101233.78
2022-09-23T15:27:37.845Z,101231.38
2022-09-23T15:30:17.109Z,101222.25
2022-09-23T15:32:45.594Z,101224.25
2022-09-23T15:35:19.206Z,101229.09
2022-09-23T15:37:51.826Z,101236.19
2022-09-23T15:40:31.314Z,101229.31
2022-09-23T15:43:01.437Z,101233.41
2022-09-23T15:45:36.390Z,101237.72
2022-09-23T15:48:11.947Z,101227.97
2022-09-23T15:50:42.549Z,101225.41
2022-09-23T15:53:26.224Z,101222.34
2022-09-23T15:55:54.122Z,101222.81
2022-09-23T15:58:22.606Z,101222.22
2022-09-23T16:00:55.909Z,101218.53
2022-09-23T16:03:33.690Z,101223.22
2022-09-23T16:06:03.239Z,101221.59
2022-09-23T16:08:32.937Z,101215.03
2022-09-23T16:11:02.977Z,101216.88
2022-09-23T16:13:29.947Z,101215.72
2022-09-23T16:15:57.095Z,101226.72
2022-09-23T16:18:26.590Z,101220.66
2022-09-23T16:20:54.741Z,101217.69
2022-09-23T16:23:39.932Z,101214.06
2022-09-23T16:26:24.329Z,101214.66
2022-09-23T16:28:54.198Z,101219.44
2022-09-23T16:31:25.497Z,101215.44
2022-09-23T16:33:53.855Z,101223.25
2022-09-23T16:36:23.017Z,101222.81
2022-09-23T16:38:55.523Z,101220.66
2022-09-23T16:41:33.901Z,101225.13
2022-09-23T16:44:05.483Z,101222.44
2022-09-23T16:46:33.266Z,101227.72
